sensor_id;sensor_type;location;lat;lon;timestamp;P1;durP1;ratioP1;P2;durP2;ratioP2
18102;SDS011;9178;51.120;6.192;2023-03-14T00:01:07;4.30;;;1.40;;
18102;SDS011;9178;51.120;6.192;2023-03-14T00:03:35;4.07;;;1.10;;
18102;SDS011;9178;51.120;6.192;2023-03-14T00:06:02;2.97;;;0.70;;
18102;SDS011;9178;51.120;6.192;2023-03-14T00:08:31;4.97;;;0.70;;
18102;SDS011;9178;51.120;6.192;2023-03-14T00:10:58;5.50;;;1.43;;
18102;SDS011;9178;51.120;6.192;2023-03-14T00:13:29;6.77;;;1.43;;
18102;SDS011;9178;51.120;6.192;2023-03-14T00:16:01;8.67;;;1.37;;
18102;SDS011;9178;51.120;6.192;2023-03-14T00:18:28;9.93;;;1.60;;
18102;SDS011;9178;51.120;6.192;2023-03-14T00:20:56;5.73;;;1.50;;
18102;SDS011;9178;51.120;6.192;2023-03-14T00:23:24;8.53;;;1.67;;
18102;SDS011;9178;51.120;6.192;2023-03-14T00:25:52;5.73;;;1.17;;
18102;SDS011;9178;51.120;6.192;2023-03-14T00:28:19;4.73;;;1.33;;
18102;SDS011;9178;51.120;6.192;2023-03-14T00:30:46;6.17;;;1.10;;
18102;SDS011;9178;51.120;6.192;2023-03-14T00:33:12;7.90;;;1.20;;
18102;SDS011;9178;51.120;6.192;2023-03-14T00:35:39;2.97;;;0.90;;
18102;SDS011;9178;51.120;6.192;2023-03-14T00:38:06;6.13;;;1.10;;
18102;SDS011;9178;51.120;6.192;2023-03-14T00:40:33;4.70;;;0.87;;
18102;SDS011;9178;51.120;6.192;2023-03-14T00:43:01;3.30;;;1.07;;
18102;SDS011;9178;51.120;6.192;2023-03-14T00:45:28;3.80;;;0.87;;
18102;SDS011;9178;51.120;6.192;2023-03-14T00:47:55;4.17;;;0.83;;
18102;SDS011;9178;51.120;6.192;2023-03-14T00:50:21;2.97;;;0.80;;
18102;SDS011;9178;51.120;6.192;2023-03-14T00:52:48;3.50;;;0.90;;
18102;SDS011;9178;51.120;6.192;2023-03-14T00:55:15;3.17;;;0.60;;
18102;SDS011;9178;51.120;6.192;2023-03-14T00:57:42;2.73;;;0.90;;
18102;SDS011;9178;51.120;6.192;2023-03-14T01:00:11;1.47;;;0.77;;
18102;SDS011;9178;51.120;6.192;2023-03-14T01:02:40;1.70;;;0.80;;
18102;SDS011;9178;51.120;6.192;2023-03-14T01:05:07;6.00;;;1.13;;
18102;SDS011;9178;51.120;6.192;2023-03-14T01:07:35;3.37;;;1.10;;
18102;SDS011;9178;51.120;6.192;2023-03-14T01:10:02;4.73;;;1.07;;
18102;SDS011;9178;51.120;6.192;2023-03-14T01:12:30;3.53;;;1.13;;
18102;SDS011;9178;51.120;6.192;2023-03-14T01:14:58;5.97;;;1.50;;
18102;SDS011;9178;51.120;6.192;2023-03-14T01:17:26;5.03;;;1.30;;
18102;SDS011;9178;51.120;6.192;2023-03-14T01:19:55;5.77;;;1.20;;
18102;SDS011;9178;51.120;6.192;2023-03-14T01:22:22;2.80;;;1.00;;
18102;SDS011;9178;51.120;6.192;2023-03-14T01:24:48;3.17;;;0.90;;
18102;SDS011;9178;51.120;6.192;2023-03-14T01:27:15;5.93;;;1.10;;
18102;SDS011;9178;51.120;6.192;2023-03-14T01:29:42;2.13;;;0.97;;
18102;SDS011;9178;51.120;6.192;2023-03-14T01:32:09;5.37;;;1.07;;
18102;SDS011;9178;51.120;6.192;2023-03-14T01:34:37;4.93;;;1.17;;
18102;SDS011;9178;51.120;6.192;2023-03-14T01:37:04;4.80;;;1.10;;
18102;SDS011;9178;51.120;6.192;2023-03-14T01:39:33;5.77;;;1.20;;
18102;SDS011;9178;51.120;6.192;2023-03-14T01:42:00;5.03;;;1.50;;
18102;SDS011;9178;51.120;6.192;2023-03-14T01:44:27;4.27;;;1.70;;
18102;SDS011;9178;51.120;6.192;2023-03-14T01:46:54;5.03;;;1.23;;
18102;SDS011;9178;51.120;6.192;2023-03-14T01:49:22;3.73;;;1.10;;
18102;SDS011;9178;51.120;6.192;2023-03-14T01:51:55;5.07;;;1.30;;
18102;SDS011;9178;51.120;6.192;2023-03-14T01:54:26;4.17;;;1.07;;
18102;SDS011;9178;51.120;6.192;2023-03-14T01:56:57;2.97;;;1.33;;
18102;SDS011;9178;51.120;6.192;2023-03-14T01:59:29;5.80;;;1.40;;
18102;SDS011;9178;51.120;6.192;2023-03-14T02:01:57;6.00;;;1.20;;
18102;SDS011;9178;51.120;6.192;2023-03-14T02:04:25;7.53;;;1.47;;
18102;SDS011;9178;51.120;6.192;2023-03-14T02:06:59;3.93;;;1.10;;
18102;SDS011;9178;51.120;6.192;2023-03-14T02:09:31;3.40;;;1.50;;
18102;SDS011;9178;51.120;6.192;2023-03-14T02:11:59;5.70;;;1.00;;
18102;SDS011;9178;51.120;6.192;2023-03-14T02:14:28;4.70;;;1.17;;
18102;SDS011;9178;51.120;6.192;2023-03-14T02:16:58;5.67;;;1.30;;
18102;SDS011;9178;51.120;6.192;2023-03-14T02:19:29;4.67;;;1.07;;
18102;SDS011;9178;51.120;6.192;2023-03-14T02:22:08;4.47;;;1.00;;
18102;SDS011;9178;51.120;6.192;2023-03-14T02:24:38;3.97;;;0.90;;
18102;SDS011;9178;51.120;6.192;2023-03-14T02:27:13;7.37;;;1.47;;
18102;SDS011;9178;51.120;6.192;2023-03-14T02:29:45;2.07;;;1.10;;
18102;SDS011;9178;51.120;6.192;2023-03-14T02:32:15;4.63;;;1.10;;
18102;SDS011;9178;51.120;6.192;2023-03-14T02:34:44;6.90;;;1.53;;
18102;SDS011;9178;51.120;6.192;2023-03-14T02:37:14;7.83;;;1.67;;
18102;SDS011;9178;51.120;6.192;2023-03-14T02:39:44;5.20;;;1.43;;
18102;SDS011;9178;51.120;6.192;2023-03-14T02:42:15;6.63;;;1.43;;
18102;SDS011;9178;51.120;6.192;2023-03-14T02:44:47;8.57;;;1.73;;
18102;SDS011;9178;51.120;6.192;2023-03-14T02:47:16;5.17;;;1.00;;
18102;SDS011;9178;51.120;6.192;2023-03-14T02:49:46;5.90;;;1.77;;
18102;SDS011;9178;51.120;6.192;2023-03-14T02:52:13;6.43;;;1.27;;
18102;SDS011;9178;51.120;6.192;2023-03-14T02:54:40;5.93;;;1.43;;
18102;SDS011;9178;51.120;6.192;2023-03-14T02:57:07;5.03;;;1.47;;
18102;SDS011;9178;51.120;6.192;2023-03-14T02:59:35;8.53;;;1.30;;
18102;SDS011;9178;51.120;6.192;2023-03-14T03:02:02;5.47;;;1.20;;
18102;SDS011;9178;51.120;6.192;2023-03-14T03:04:28;7.33;;;1.50;;
18102;SDS011;9178;51.120;6.192;2023-03-14T03:06:55;5.00;;;1.43;;
18102;SDS011;9178;51.120;6.192;2023-03-14T03:09:22;5.00;;;1.23;;
18102;SDS011;9178;51.120;6.192;2023-03-14T03:11:49;4.03;;;1.30;;
18102;SDS011;9178;51.120;6.192;2023-03-14T03:14:16;6.53;;;1.20;;
18102;SDS011;9178;51.120;6.192;2023-03-14T03:16:44;6.53;;;1.50;;
18102;SDS011;9178;51.120;6.192;2023-03-14T03:19:11;5.60;;;1.60;;
18102;SDS011;9178;51.120;6.192;2023-03-14T03:21:38;8.83;;;1.53;;
18102;SDS011;9178;51.120;6.192;2023-03-14T03:24:10;7.60;;;1.37;;
18102;SDS011;9178;51.120;6.192;2023-03-14T03:26:37;4.60;;;1.30;;
18102;SDS011;9178;51.120;6.192;2023-03-14T03:29:04;9.83;;;1.77;;
18102;SDS011;9178;51.120;6.192;2023-03-14T03:31:31;7.23;;;1.37;;
18102;SDS011;9178;51.120;6.192;2023-03-14T03:33:59;8.77;;;1.50;;
18102;SDS011;9178;51.120;6.192;2023-03-14T03:36:26;7.83;;;1.70;;
18102;SDS011;9178;51.120;6.192;2023-03-14T03:38:52;7.63;;;1.63;;
18102;SDS011;9178;51.120;6.192;2023-03-14T03:41:19;8.13;;;1.10;;
18102;SDS011;9178;51.120;6.192;2023-03-14T03:43:46;8.93;;;1.50;;
18102;SDS011;9178;51.120;6.192;2023-03-14T03:46:13;8.00;;;1.27;;
18102;SDS011;9178;51.120;6.192;2023-03-14T03:48:40;10.20;;;1.33;;
18102;SDS011;9178;51.120;6.192;2023-03-14T03:51:09;5.33;;;1.30;;
18102;SDS011;9178;51.120;6.192;2023-03-14T03:53:39;1.87;;;0.80;;
18102;SDS011;9178;51.120;6.192;2023-03-14T03:56:06;4.87;;;0.93;;
18102;SDS011;9178;51.120;6.192;2023-03-14T03:58:34;4.07;;;1.00;;
18102;SDS011;9178;51.120;6.192;2023-03-14T04:01:03;3.97;;;1.10;;
18102;SDS011;9178;51.120;6.192;2023-03-14T04:03:31;5.80;;;1.40;;
18102;SDS011;9178;51.120;6.192;2023-03-14T04:05:58;4.80;;;1.10;;
18102;SDS011;9178;51.120;6.192;2023-03-14T04:08:27;5.37;;;1.30;;
18102;SDS011;9178;51.120;6.192;2023-03-14T04:10:55;3.70;;;1.07;;
18102;SDS011;9178;51.120;6.192;2023-03-14T04:13:23;2.80;;;0.80;;
18102;SDS011;9178;51.120;6.192;2023-03-14T04:15:50;7.80;;;1.07;;
18102;SDS011;9178;51.120;6.192;2023-03-14T04:18:17;5.17;;;1.10;;
18102;SDS011;9178;51.120;6.192;2023-03-14T04:20:45;4.30;;;0.97;;
18102;SDS011;9178;51.120;6.192;2023-03-14T04:23:12;2.73;;;1.07;;
18102;SDS011;9178;51.120;6.192;2023-03-14T04:25:40;7.77;;;1.33;;
18102;SDS011;9178;51.120;6.192;2023-03-14T04:28:07;5.03;;;1.30;;
18102;SDS011;9178;51.120;6.192;2023-03-14T04:30:34;10.33;;;1.23;;
18102;SDS011;9178;51.120;6.192;2023-03-14T04:33:00;4.73;;;1.10;;
18102;SDS011;9178;51.120;6.192;2023-03-14T04:35:29;4.87;;;1.47;;
18102;SDS011;9178;51.120;6.192;2023-03-14T04:37:57;3.60;;;1.33;;
18102;SDS011;9178;51.120;6.192;2023-03-14T04:40:24;7.10;;;1.33;;
18102;SDS011;9178;51.120;6.192;2023-03-14T04:42:52;4.13;;;1.23;;
18102;SDS011;9178;51.120;6.192;2023-03-14T04:45:19;2.70;;;1.27;;
18102;SDS011;9178;51.120;6.192;2023-03-14T04:47:46;4.73;;;1.20;;
18102;SDS011;9178;51.120;6.192;2023-03-14T04:50:13;7.13;;;1.57;;
18102;SDS011;9178;51.120;6.192;2023-03-14T04:52:40;6.87;;;1.30;;
18102;SDS011;9178;51.120;6.192;2023-03-14T04:55:07;2.50;;;1.03;;
18102;SDS011;9178;51.120;6.192;2023-03-14T04:57:33;1.93;;;1.27;;
18102;SDS011;9178;51.120;6.192;2023-03-14T05:00:02;0.97;;;0.50;;
18102;SDS011;9178;51.120;6.192;2023-03-14T05:02:32;3.87;;;0.77;;
18102;SDS011;9178;51.120;6.192;2023-03-14T05:04:59;1.93;;;0.40;;
18102;SDS011;9178;51.120;6.192;2023-03-14T05:07:26;2.07;;;0.60;;
18102;SDS011;9178;51.120;6.192;2023-03-14T05:09:54;0.97;;;0.47;;
18102;SDS011;9178;51.120;6.192;2023-03-14T05:12:21;2.37;;;0.40;;
18102;SDS011;9178;51.120;6.192;2023-03-14T05:14:47;1.47;;;0.70;;
18102;SDS011;9178;51.120;6.192;2023-03-14T05:17:15;1.53;;;0.30;;
18102;SDS011;9178;51.120;6.192;2023-03-14T05:19:43;0.90;;;0.40;;
18102;SDS011;9178;51.120;6.192;2023-03-14T05:22:10;1.70;;;0.40;;
18102;SDS011;9178;51.120;6.192;2023-03-14T05:24:37;0.73;;;0.40;;
18102;SDS011;9178;51.120;6.192;2023-03-14T05:27:04;0.60;;;0.40;;
18102;SDS011;9178;51.120;6.192;2023-03-14T05:29:31;2.70;;;0.70;;
18102;SDS011;9178;51.120;6.192;2023-03-14T05:31:58;1.40;;;0.30;;
18102;SDS011;9178;51.120;6.192;2023-03-14T05:34:26;1.90;;;0.30;;
18102;SDS011;9178;51.120;6.192;2023-03-14T05:36:56;1.73;;;0.50;;
18102;SDS011;9178;51.120;6.192;2023-03-14T05:39:23;1.87;;;0.40;;
18102;SDS011;9178;51.120;6.192;2023-03-14T05:41:50;0.87;;;0.40;;
18102;SDS011;9178;51.120;6.192;2023-03-14T05:44:18;1.10;;;0.30;;
18102;SDS011;9178;51.120;6.192;2023-03-14T05:46:45;0.30;;;0.30;;
18102;SDS011;9178;51.120;6.192;2023-03-14T05:49:12;1.23;;;0.40;;
18102;SDS011;9178;51.120;6.192;2023-03-14T05:51:41;0.30;;;0.23;;
18102;SDS011;9178;51.120;6.192;2023-03-14T05:54:08;3.07;;;1.10;;
18102;SDS011;9178;51.120;6.192;2023-03-14T05:56:35;1.77;;;0.30;;
18102;SDS011;9178;51.120;6.192;2023-03-14T05:59:02;1.77;;;0.30;;
18102;SDS011;9178;51.120;6.192;2023-03-14T06:01:29;0.23;;;0.23;;
18102;SDS011;9178;51.120;6.192;2023-03-14T06:03:56;0.33;;;0.23;;
18102;SDS011;9178;51.120;6.192;2023-03-14T06:06:23;0.70;;;0.30;;
18102;SDS011;9178;51.120;6.192;2023-03-14T06:08:51;0.50;;;0.27;;
18102;SDS011;9178;51.120;6.192;2023-03-14T06:11:18;0.13;;;0.13;;
18102;SDS011;9178;51.120;6.192;2023-03-14T06:13:45;1.37;;;0.40;;
18102;SDS011;9178;51.120;6.192;2023-03-14T06:16:11;0.20;;;0.20;;
18102;SDS011;9178;51.120;6.192;2023-03-14T06:18:39;0.27;;;0.27;;
18102;SDS011;9178;51.120;6.192;2023-03-14T06:21:06;1.33;;;0.40;;
18102;SDS011;9178;51.120;6.192;2023-03-14T06:23:33;0.87;;;0.30;;
18102;SDS011;9178;51.120;6.192;2023-03-14T06:26:01;0.57;;;0.20;;
18102;SDS011;9178;51.120;6.192;2023-03-14T06:28:28;0.10;;;0.10;;
18102;SDS011;9178;51.120;6.192;2023-03-14T06:30:55;0.63;;;0.20;;
18102;SDS011;9178;51.120;6.192;2023-03-14T06:33:22;0.80;;;0.27;;
18102;SDS011;9178;51.120;6.192;2023-03-14T06:35:49;0.30;;;0.30;;
18102;SDS011;9178;51.120;6.192;2023-03-14T06:38:16;0.60;;;0.40;;
18102;SDS011;9178;51.120;6.192;2023-03-14T06:40:43;0.30;;;0.30;;
18102;SDS011;9178;51.120;6.192;2023-03-14T06:43:11;0.50;;;0.50;;
18102;SDS011;9178;51.120;6.192;2023-03-14T06:45:38;0.83;;;0.50;;
18102;SDS011;9178;51.120;6.192;2023-03-14T06:48:05;1.77;;;0.67;;
18102;SDS011;9178;51.120;6.192;2023-03-14T06:50:32;0.60;;;0.60;;
18102;SDS011;9178;51.120;6.192;2023-03-14T06:52:59;0.40;;;0.40;;
18102;SDS011;9178;51.120;6.192;2023-03-14T06:55:26;0.50;;;0.50;;
18102;SDS011;9178;51.120;6.192;2023-03-14T06:57:53;0.90;;;0.80;;
18102;SDS011;9178;51.120;6.192;2023-03-14T07:00:21;0.63;;;0.60;;
18102;SDS011;9178;51.120;6.192;2023-03-14T07:02:49;0.43;;;0.43;;
18102;SDS011;9178;51.120;6.192;2023-03-14T07:05:16;0.50;;;0.50;;
18102;SDS011;9178;51.120;6.192;2023-03-14T07:07:43;0.67;;;0.57;;
18102;SDS011;9178;51.120;6.192;2023-03-14T07:10:10;2.63;;;0.73;;
18102;SDS011;9178;51.120;6.192;2023-03-14T07:12:37;0.70;;;0.70;;
18102;SDS011;9178;51.120;6.192;2023-03-14T07:15:04;3.03;;;0.70;;
18102;SDS011;9178;51.120;6.192;2023-03-14T07:17:33;1.00;;;0.60;;
18102;SDS011;9178;51.120;6.192;2023-03-14T07:20:00;1.17;;;0.90;;
18102;SDS011;9178;51.120;6.192;2023-03-14T07:22:29;0.97;;;0.80;;
18102;SDS011;9178;51.120;6.192;2023-03-14T07:24:56;0.87;;;0.80;;
18102;SDS011;9178;51.120;6.192;2023-03-14T07:27:23;1.10;;;1.00;;
18102;SDS011;9178;51.120;6.192;2023-03-14T07:29:49;1.43;;;0.90;;
18102;SDS011;9178;51.120;6.192;2023-03-14T07:32:16;0.60;;;0.60;;
18102;SDS011;9178;51.120;6.192;2023-03-14T07:34:44;2.13;;;0.80;;
18102;SDS011;9178;51.120;6.192;2023-03-14T07:37:11;0.90;;;0.60;;
18102;SDS011;9178;51.120;6.192;2023-03-14T07:39:38;0.60;;;0.60;;
18102;SDS011;9178;51.120;6.192;2023-03-14T07:42:05;1.43;;;0.60;;
18102;SDS011;9178;51.120;6.192;2023-03-14T07:44:32;1.33;;;0.60;;
18102;SDS011;9178;51.120;6.192;2023-03-14T07:46:59;0.97;;;0.70;;
18102;SDS011;9178;51.120;6.192;2023-03-14T07:49:26;1.90;;;0.60;;
18102;SDS011;9178;51.120;6.192;2023-03-14T07:51:54;1.40;;;0.60;;
18102;SDS011;9178;51.120;6.192;2023-03-14T07:54:21;1.53;;;0.70;;
18102;SDS011;9178;51.120;6.192;2023-03-14T07:56:49;0.60;;;0.50;;
18102;SDS011;9178;51.120;6.192;2023-03-14T07:59:16;0.83;;;0.60;;
18102;SDS011;9178;51.120;6.192;2023-03-14T08:01:43;0.83;;;0.60;;
18102;SDS011;9178;51.120;6.192;2023-03-14T08:04:11;1.37;;;0.80;;
18102;SDS011;9178;51.120;6.192;2023-03-14T08:06:38;1.40;;;0.80;;
18102;SDS011;9178;51.120;6.192;2023-03-14T08:09:06;1.90;;;0.60;;
18102;SDS011;9178;51.120;6.192;2023-03-14T08:11:33;0.93;;;0.70;;
18102;SDS011;9178;51.120;6.192;2023-03-14T08:14:00;2.67;;;1.00;;
18102;SDS011;9178;51.120;6.192;2023-03-14T08:16:27;1.30;;;0.80;;
18102;SDS011;9178;51.120;6.192;2023-03-14T08:18:54;0.80;;;0.80;;
18102;SDS011;9178;51.120;6.192;2023-03-14T08:21:21;2.70;;;1.07;;
18102;SDS011;9178;51.120;6.192;2023-03-14T08:23:48;0.97;;;0.80;;
18102;SDS011;9178;51.120;6.192;2023-03-14T08:26:16;1.20;;;1.10;;
18102;SDS011;9178;51.120;6.192;2023-03-14T08:28:43;2.00;;;1.20;;
18102;SDS011;9178;51.120;6.192;2023-03-14T08:31:21;3.03;;;1.50;;
18102;SDS011;9178;51.120;6.192;2023-03-14T08:33:59;1.00;;;0.90;;
18102;SDS011;9178;51.120;6.192;2023-03-14T08:36:27;3.33;;;1.10;;
18102;SDS011;9178;51.120;6.192;2023-03-14T08:38:54;1.53;;;0.97;;
18102;SDS011;9178;51.120;6.192;2023-03-14T08:41:22;1.07;;;0.97;;
18102;SDS011;9178;51.120;6.192;2023-03-14T08:43:51;1.40;;;0.50;;
18102;SDS011;9178;51.120;6.192;2023-03-14T08:46:18;1.07;;;0.60;;
18102;SDS011;9178;51.120;6.192;2023-03-14T08:48:45;0.93;;;0.60;;
18102;SDS011;9178;51.120;6.192;2023-03-14T08:51:12;0.50;;;0.50;;
18102;SDS011;9178;51.120;6.192;2023-03-14T08:53:42;1.70;;;0.70;;
18102;SDS011;9178;51.120;6.192;2023-03-14T08:56:09;2.53;;;0.50;;
18102;SDS011;9178;51.120;6.192;2023-03-14T08:58:38;0.43;;;0.43;;
18102;SDS011;9178;51.120;6.192;2023-03-14T09:01:07;0.50;;;0.50;;
18102;SDS011;9178;51.120;6.192;2023-03-14T09:03:35;0.90;;;0.70;;
18102;SDS011;9178;51.120;6.192;2023-03-14T09:06:03;0.77;;;0.70;;
18102;SDS011;9178;51.120;6.192;2023-03-14T09:08:30;1.37;;;0.80;;
18102;SDS011;9178;51.120;6.192;2023-03-14T09:10:58;1.53;;;0.90;;
18102;SDS011;9178;51.120;6.192;2023-03-14T09:13:26;1.27;;;1.23;;
18102;SDS011;9178;51.120;6.192;2023-03-14T09:15:55;0.97;;;0.97;;
18102;SDS011;9178;51.120;6.192;2023-03-14T09:18:22;1.40;;;1.23;;
18102;SDS011;9178;51.120;6.192;2023-03-14T09:20:49;1.50;;;1.40;;
18102;SDS011;9178;51.120;6.192;2023-03-14T09:23:16;1.60;;;1.50;;
18102;SDS011;9178;51.120;6.192;2023-03-14T09:25:43;1.40;;;1.30;;
18102;SDS011;9178;51.120;6.192;2023-03-14T09:28:10;2.00;;;1.60;;
18102;SDS011;9178;51.120;6.192;2023-03-14T09:30:37;2.53;;;1.17;;
18102;SDS011;9178;51.120;6.192;2023-03-14T09:33:05;1.00;;;1.00;;
18102;SDS011;9178;51.120;6.192;2023-03-14T09:35:33;1.43;;;1.20;;
18102;SDS011;9178;51.120;6.192;2023-03-14T09:38:00;1.87;;;1.00;;
18102;SDS011;9178;51.120;6.192;2023-03-14T09:40:27;1.47;;;1.03;;
18102;SDS011;9178;51.120;6.192;2023-03-14T09:42:59;1.17;;;1.00;;
18102;SDS011;9178;51.120;6.192;2023-03-14T09:45:27;1.20;;;0.80;;
18102;SDS011;9178;51.120;6.192;2023-03-14T09:47:57;1.37;;;0.80;;
18102;SDS011;9178;51.120;6.192;2023-03-14T09:50:27;2.47;;;0.90;;
18102;SDS011;9178;51.120;6.192;2023-03-14T09:53:03;0.97;;;0.80;;
18102;SDS011;9178;51.120;6.192;2023-03-14T09:55:35;0.60;;;0.60;;
18102;SDS011;9178;51.120;6.192;2023-03-14T09:58:03;0.77;;;0.63;;
18102;SDS011;9178;51.120;6.192;2023-03-14T10:00:37;1.00;;;0.80;;
18102;SDS011;9178;51.120;6.192;2023-03-14T10:03:14;1.90;;;0.70;;
18102;SDS011;9178;51.120;6.192;2023-03-14T10:05:50;1.33;;;0.60;;
18102;SDS011;9178;51.120;6.192;2023-03-14T10:08:17;0.70;;;0.53;;
18102;SDS011;9178;51.120;6.192;2023-03-14T10:10:44;2.83;;;0.80;;
18102;SDS011;9178;51.120;6.192;2023-03-14T10:13:14;1.33;;;0.70;;
18102;SDS011;9178;51.120;6.192;2023-03-14T10:15:46;2.93;;;1.00;;
18102;SDS011;9178;51.120;6.192;2023-03-14T10:18:14;3.20;;;0.90;;
18102;SDS011;9178;51.120;6.192;2023-03-14T10:20:42;0.80;;;0.60;;
18102;SDS011;9178;51.120;6.192;2023-03-14T10:23:26;2.67;;;1.00;;
18102;SDS011;9178;51.120;6.192;2023-03-14T10:26:03;3.40;;;1.17;;
18102;SDS011;9178;51.120;6.192;2023-03-14T10:28:34;1.33;;;0.87;;
18102;SDS011;9178;51.120;6.192;2023-03-14T10:31:05;1.43;;;1.00;;
18102;SDS011;9178;51.120;6.192;2023-03-14T10:33:33;2.40;;;1.30;;
18102;SDS011;9178;51.120;6.192;2023-03-14T10:36:03;4.60;;;1.30;;
18102;SDS011;9178;51.120;6.192;2023-03-14T10:38:35;2.17;;;1.27;;
18102;SDS011;9178;51.120;6.192;2023-03-14T10:41:13;2.73;;;1.33;;
18102;SDS011;9178;51.120;6.192;2023-03-14T10:43:42;1.70;;;1.30;;
18102;SDS011;9178;51.120;6.192;2023-03-14T10:46:11;1.43;;;1.30;;
18102;SDS011;9178;51.120;6.192;2023-03-14T10:48:42;2.10;;;1.50;;
18102;SDS011;9178;51.120;6.192;2023-03-14T10:51:11;1.57;;;1.33;;
18102;SDS011;9178;51.120;6.192;2023-03-14T10:53:46;1.67;;;1.57;;
18102;SDS011;9178;51.120;6.192;2023-03-14T10:56:15;3.53;;;1.60;;
18102;SDS011;9178;51.120;6.192;2023-03-14T10:58:44;9.17;;;1.70;;
18102;SDS011;9178;51.120;6.192;2023-03-14T11:01:16;1.60;;;0.80;;
18102;SDS011;9178;51.120;6.192;2023-03-14T11:03:54;0.83;;;0.50;;
18102;SDS011;9178;51.120;6.192;2023-03-14T11:06:27;0.47;;;0.47;;
18102;SDS011;9178;51.120;6.192;2023-03-14T11:09:04;1.07;;;0.40;;
18102;SDS011;9178;51.120;6.192;2023-03-14T11:11:38;0.50;;;0.50;;
18102;SDS011;9178;51.120;6.192;2023-03-14T11:14:10;1.27;;;0.57;;
18102;SDS011;9178;51.120;6.192;2023-03-14T11:16:46;0.40;;;0.40;;
18102;SDS011;9178;51.120;6.192;2023-03-14T11:19:26;0.83;;;0.60;;
18102;SDS011;9178;51.120;6.192;2023-03-14T11:22:10;1.27;;;0.50;;
18102;SDS011;9178;51.120;6.192;2023-03-14T11:24:51;1.17;;;0.93;;
18102;SDS011;9178;51.120;6.192;2023-03-14T11:27:33;2.50;;;0.73;;
18102;SDS011;9178;51.120;6.192;2023-03-14T11:30:13;2.37;;;0.80;;
18102;SDS011;9178;51.120;6.192;2023-03-14T11:32:50;0.70;;;0.57;;
18102;SDS011;9178;51.120;6.192;2023-03-14T11:35:24;3.60;;;1.10;;
18102;SDS011;9178;51.120;6.192;2023-03-14T11:37:57;2.00;;;0.67;;
18102;SDS011;9178;51.120;6.192;2023-03-14T11:40:31;2.17;;;0.70;;
18102;SDS011;9178;51.120;6.192;2023-03-14T11:43:02;2.73;;;0.70;;
18102;SDS011;9178;51.120;6.192;2023-03-14T11:45:35;1.80;;;0.60;;
18102;SDS011;9178;51.120;6.192;2023-03-14T11:48:11;3.20;;;0.70;;
18102;SDS011;9178;51.120;6.192;2023-03-14T11:50:46;2.47;;;1.20;;
18102;SDS011;9178;51.120;6.192;2023-03-14T11:53:17;1.67;;;0.77;;
18102;SDS011;9178;51.120;6.192;2023-03-14T11:55:49;2.47;;;0.80;;
18102;SDS011;9178;51.120;6.192;2023-03-14T11:58:17;2.87;;;0.80;;
18102;SDS011;9178;51.120;6.192;2023-03-14T12:00:49;2.50;;;1.03;;
18102;SDS011;9178;51.120;6.192;2023-03-14T12:03:21;3.83;;;0.90;;
18102;SDS011;9178;51.120;6.192;2023-03-14T12:05:59;3.07;;;0.90;;
18102;SDS011;9178;51.120;6.192;2023-03-14T12:08:42;5.73;;;1.07;;
18102;SDS011;9178;51.120;6.192;2023-03-14T12:11:15;5.93;;;0.90;;
18102;SDS011;9178;51.120;6.192;2023-03-14T12:13:47;4.17;;;1.07;;
18102;SDS011;9178;51.120;6.192;2023-03-14T12:16:25;4.80;;;1.23;;
18102;SDS011;9178;51.120;6.192;2023-03-14T12:25:03;2.70;;;0.97;;
18102;SDS011;9178;51.120;6.192;2023-03-14T12:27:44;6.70;;;1.47;;
18102;SDS011;9178;51.120;6.192;2023-03-14T12:30:26;5.00;;;1.40;;
18102;SDS011;9178;51.120;6.192;2023-03-14T12:36:00;5.90;;;1.20;;
18102;SDS011;9178;51.120;6.192;2023-03-14T12:38:52;7.13;;;1.60;;
18102;SDS011;9178;51.120;6.192;2023-03-14T12:41:27;3.93;;;1.57;;
18102;SDS011;9178;51.120;6.192;2023-03-14T12:50:12;4.83;;;1.23;;
18102;SDS011;9178;51.120;6.192;2023-03-14T12:52:43;3.73;;;1.00;;
18102;SDS011;9178;51.120;6.192;2023-03-14T12:55:29;2.47;;;0.97;;
18102;SDS011;9178;51.120;6.192;2023-03-14T12:58:03;4.47;;;1.07;;
18102;SDS011;9178;51.120;6.192;2023-03-14T13:00:39;5.73;;;1.23;;
18102;SDS011;9178;51.120;6.192;2023-03-14T13:03:15;5.17;;;1.03;;
18102;SDS011;9178;51.120;6.192;2023-03-14T13:05:53;8.73;;;1.93;;
18102;SDS011;9178;51.120;6.192;2023-03-14T13:08:33;7.37;;;1.67;;
18102;SDS011;9178;51.120;6.192;2023-03-14T13:11:02;5.77;;;1.53;;
18102;SDS011;9178;51.120;6.192;2023-03-14T13:13:34;7.47;;;1.43;;
18102;SDS011;9178;51.120;6.192;2023-03-14T13:16:05;8.33;;;1.83;;
18102;SDS011;9178;51.120;6.192;2023-03-14T13:18:39;7.13;;;1.90;;
18102;SDS011;9178;51.120;6.192;2023-03-14T13:21:09;7.93;;;1.90;;
18102;SDS011;9178;51.120;6.192;2023-03-14T13:23:39;9.83;;;2.00;;
18102;SDS011;9178;51.120;6.192;2023-03-14T13:26:09;13.63;;;2.10;;
18102;SDS011;9178;51.120;6.192;2023-03-14T13:28:39;10.40;;;2.17;;
18102;SDS011;9178;51.120;6.192;2023-03-14T13:31:12;9.60;;;2.73;;
18102;SDS011;9178;51.120;6.192;2023-03-14T13:33:47;10.17;;;1.90;;
18102;SDS011;9178;51.120;6.192;2023-03-14T13:36:23;8.70;;;1.77;;
18102;SDS011;9178;51.120;6.192;2023-03-14T13:38:55;10.47;;;2.10;;
18102;SDS011;9178;51.120;6.192;2023-03-14T13:41:23;9.60;;;2.23;;
18102;SDS011;9178;51.120;6.192;2023-03-14T13:43:51;9.20;;;1.80;;
18102;SDS011;9178;51.120;6.192;2023-03-14T13:46:23;11.03;;;2.10;;
18102;SDS011;9178;51.120;6.192;2023-03-14T13:48:50;11.97;;;1.80;;
18102;SDS011;9178;51.120;6.192;2023-03-14T13:51:21;9.43;;;1.63;;
18102;SDS011;9178;51.120;6.192;2023-03-14T13:53:51;10.07;;;2.10;;
18102;SDS011;9178;51.120;6.192;2023-03-14T13:56:19;6.87;;;1.90;;
18102;SDS011;9178;51.120;6.192;2023-03-14T13:58:47;7.07;;;1.57;;
18102;SDS011;9178;51.120;6.192;2023-03-14T14:01:15;6.57;;;1.60;;
18102;SDS011;9178;51.120;6.192;2023-03-14T14:03:46;7.50;;;1.70;;
18102;SDS011;9178;51.120;6.192;2023-03-14T14:06:28;5.27;;;1.27;;
18102;SDS011;9178;51.120;6.192;2023-03-14T14:08:58;6.50;;;2.03;;
18102;SDS011;9178;51.120;6.192;2023-03-14T14:11:33;9.20;;;1.57;;
18102;SDS011;9178;51.120;6.192;2023-03-14T14:14:09;7.87;;;1.83;;
18102;SDS011;9178;51.120;6.192;2023-03-14T14:16:41;8.73;;;1.47;;
18102;SDS011;9178;51.120;6.192;2023-03-14T14:19:14;6.23;;;1.60;;
18102;SDS011;9178;51.120;6.192;2023-03-14T14:21:43;9.30;;;2.00;;
18102;SDS011;9178;51.120;6.192;2023-03-14T14:24:13;12.17;;;2.00;;
18102;SDS011;9178;51.120;6.192;2023-03-14T14:26:46;9.93;;;1.90;;
18102;SDS011;9178;51.120;6.192;2023-03-14T14:29:19;11.33;;;1.97;;
18102;SDS011;9178;51.120;6.192;2023-03-14T14:31:59;11.73;;;2.43;;
18102;SDS011;9178;51.120;6.192;2023-03-14T14:34:28;9.93;;;1.60;;
18102;SDS011;9178;51.120;6.192;2023-03-14T14:37:04;9.00;;;1.90;;
18102;SDS011;9178;51.120;6.192;2023-03-14T14:39:31;11.90;;;2.47;;
18102;SDS011;9178;51.120;6.192;2023-03-14T14:41:58;11.40;;;2.20;;
18102;SDS011;9178;51.120;6.192;2023-03-14T14:44:27;7.90;;;2.13;;
18102;SDS011;9178;51.120;6.192;2023-03-14T14:46:56;11.03;;;2.17;;
18102;SDS011;9178;51.120;6.192;2023-03-14T14:49:29;7.77;;;1.77;;
18102;SDS011;9178;51.120;6.192;2023-03-14T14:52:00;10.80;;;2.87;;
18102;SDS011;9178;51.120;6.192;2023-03-14T14:54:34;6.13;;;1.70;;
18102;SDS011;9178;51.120;6.192;2023-03-14T14:57:05;9.67;;;1.70;;
18102;SDS011;9178;51.120;6.192;2023-03-14T14:59:41;10.40;;;1.80;;
18102;SDS011;9178;51.120;6.192;2023-03-14T15:02:09;9.50;;;1.80;;
18102;SDS011;9178;51.120;6.192;2023-03-14T15:04:54;9.27;;;1.70;;
18102;SDS011;9178;51.120;6.192;2023-03-14T15:07:21;10.20;;;2.03;;
18102;SDS011;9178;51.120;6.192;2023-03-14T15:09:48;6.83;;;1.67;;
18102;SDS011;9178;51.120;6.192;2023-03-14T15:12:15;5.57;;;1.60;;
18102;SDS011;9178;51.120;6.192;2023-03-14T15:14:42;8.00;;;1.47;;
18102;SDS011;9178;51.120;6.192;2023-03-14T15:17:09;8.40;;;1.50;;
18102;SDS011;9178;51.120;6.192;2023-03-14T15:19:37;12.37;;;1.73;;
18102;SDS011;9178;51.120;6.192;2023-03-14T15:22:07;4.43;;;1.00;;
18102;SDS011;9178;51.120;6.192;2023-03-14T15:24:38;6.20;;;1.30;;
18102;SDS011;9178;51.120;6.192;2023-03-14T15:27:05;7.27;;;1.60;;
18102;SDS011;9178;51.120;6.192;2023-03-14T15:29:39;7.73;;;1.30;;